sensor_id;sensor_type;location;lat;lon;timestamp;pressure;altitude;pressure_sealevel;temperature;humidity
75617;BME280;64200;55.426;37.758;2023-08-17T00:02:04;100037.84;;;20.82;58.27
75617;BME280;64200;55.426;37.758;2023-08-17T00:07:05;100041.97;;;20.81;58.36
75617;BME280;64200;55.426;37.758;2023-08-17T00:12:06;100037.91;;;20.71;58.54
75617;BME280;64200;55.426;37.758;2023-08-17T00:17:07;100046.72;;;20.67;58.67
75617;BME280;64200;55.426;37.758;2023-08-17T00:22:07;100040.28;;;20.67;58.74
75617;BME280;64200;55.426;37.758;2023-08-17T00:27:08;100047.75;;;20.64;59.24
75617;BME280;64200;55.426;37.758;2023-08-17T00:32:08;100047.56;;;20.57;59.16
75617;BME280;64200;55.426;37.758;2023-08-17T00:37:09;100057.13;;;20.53;59.49
75617;BME280;64200;55.426;37.758;2023-08-17T00:42:09;100051.00;;;20.44;59.51
75617;BME280;64200;55.426;37.758;2023-08-17T00:47:10;100052.06;;;20.35;60.03
75617;BME280;64200;55.426;37.758;2023-08-17T00:52:10;100045.72;;;20.23;59.97
75617;BME280;64200;55.426;37.758;2023-08-17T00:57:11;100056.78;;;20.27;60.14
75617;BME280;64200;55.426;37.758;2023-08-17T01:02:12;100052.41;;;20.26;60.14
75617;BME280;64200;55.426;37.758;2023-08-17T01:07:13;100049.56;;;20.26;60.16
75617;BME280;64200;55.426;37.758;2023-08-17T01:12:21;100054.41;;;20.31;60.42
75617;BME280;64200;55.426;37.758;2023-08-17T01:17:29;100051.91;;;20.22;60.16
75617;BME280;64200;55.426;37.758;2023-08-17T01:22:35;100059.63;;;20.21;60.39
75617;BME280;64200;55.426;37.758;2023-08-17T01:27:45;100054.78;;;20.10;60.92
75617;BME280;64200;55.426;37.758;2023-08-17T01:38:02;100048.19;;;19.96;61.23
75617;BME280;64200;55.426;37.758;2023-08-17T01:43:05;100053.09;;;19.90;60.94
75617;BME280;64200;55.426;37.758;2023-08-17T01:48:06;100051.84;;;19.86;61.30
75617;BME280;64200;55.426;37.758;2023-08-17T01:53:07;100040.03;;;19.81;61.56
75617;BME280;64200;55.426;37.758;2023-08-17T01:58:08;100053.88;;;19.85;61.62
75617;BME280;64200;55.426;37.758;2023-08-17T02:03:09;100062.66;;;19.81;61.58
75617;BME280;64200;55.426;37.758;2023-08-17T02:08:09;100060.88;;;19.78;61.60
75617;BME280;64200;55.426;37.758;2023-08-17T02:13:10;100060.91;;;19.61;62.24
75617;BME280;64200;55.426;37.758;2023-08-17T02:18:10;100063.78;;;19.56;62.25
75617;BME280;64200;55.426;37.758;2023-08-17T02:23:11;100060.44;;;19.52;63.05
75617;BME280;64200;55.426;37.758;2023-08-17T02:28:12;100069.44;;;19.56;62.51
75617;BME280;64200;55.426;37.758;2023-08-17T02:33:12;100071.75;;;19.57;62.60
75617;BME280;64200;55.426;37.758;2023-08-17T02:38:13;100067.09;;;19.60;62.92
75617;BME280;64200;55.426;37.758;2023-08-17T02:43:13;100071.47;;;19.61;63.19
75617;BME280;64200;55.426;37.758;2023-08-17T02:48:14;100075.31;;;19.63;63.16
75617;BME280;64200;55.426;37.758;2023-08-17T02:53:14;100071.66;;;19.74;63.14
75617;BME280;64200;55.426;37.758;2023-08-17T02:58:15;100074.22;;;19.83;63.08
75617;BME280;64200;55.426;37.758;2023-08-17T03:03:15;100084.50;;;19.92;63.15
75617;BME280;64200;55.426;37.758;2023-08-17T03:08:16;100080.34;;;19.99;62.99
75617;BME280;64200;55.426;37.758;2023-08-17T03:13:16;100082.91;;;20.03;62.75
75617;BME280;64200;55.426;37.758;2023-08-17T03:18:17;100078.28;;;19.99;62.71
75617;BME280;64200;55.426;37.758;2023-08-17T03:23:17;100078.81;;;19.98;62.76
75617;BME280;64200;55.426;37.758;2023-08-17T03:28:18;100076.25;;;19.94;63.04
75617;BME280;64200;55.426;37.758;2023-08-17T03:33:18;100089.38;;;19.97;63.17
75617;BME280;64200;55.426;37.758;2023-08-17T03:38:19;100083.63;;;20.09;63.32
75617;BME280;64200;55.426;37.758;2023-08-17T03:43:19;100084.63;;;20.17;63.01
75617;BME280;64200;55.426;37.758;2023-08-17T03:48:20;100090.78;;;20.27;63.20
75617;BME280;64200;55.426;37.758;2023-08-17T03:53:22;100085.81;;;20.39;63.05
75617;BME280;64200;55.426;37.758;2023-08-17T03:58:23;100090.34;;;20.53;62.97
75617;BME280;64200;55.426;37.758;2023-08-17T04:03:26;100088.72;;;20.69;63.06
75617;BME280;64200;55.426;37.758;2023-08-17T04:08:27;100089.63;;;20.83;62.42
75617;BME280;64200;55.426;37.758;2023-08-17T04:13:27;100093.41;;;20.97;61.94
75617;BME280;64200;55.426;37.758;2023-08-17T04:18:28;100097.41;;;21.13;61.73
75617;BME280;64200;55.426;37.758;2023-08-17T04:23:28;100095.44;;;21.27;61.52
75617;BME280;64200;55.426;37.758;2023-08-17T04:28:29;100101.69;;;21.50;61.03
75617;BME280;64200;55.426;37.758;2023-08-17T04:33:29;100110.03;;;21.67;60.75
75617;BME280;64200;55.426;37.758;2023-08-17T04:38:30;100108.84;;;21.81;60.24
75617;BME280;64200;55.426;37.758;2023-08-17T04:43:30;100105.78;;;21.98;59.71
75617;BME280;64200;55.426;37.758;2023-08-17T04:48:31;100115.94;;;22.13;59.32
75617;BME280;64200;55.426;37.758;2023-08-17T04:53:31;100111.63;;;22.25;58.58
75617;BME280;64200;55.426;37.758;2023-08-17T04:58:32;100106.84;;;22.39;57.50
75617;BME280;64200;55.426;37.758;2023-08-17T05:03:32;100109.75;;;22.52;56.98
75617;BME280;64200;55.426;37.758;2023-08-17T05:08:33;100109.41;;;22.75;56.55
75617;BME280;64200;55.426;37.758;2023-08-17T05:13:34;100120.41;;;22.97;56.13
75617;BME280;64200;55.426;37.758;2023-08-17T05:18:34;100109.56;;;23.28;55.45
75617;BME280;64200;55.426;37.758;2023-08-17T05:23:35;100122.50;;;23.43;54.92
75617;BME280;64200;55.426;37.758;2023-08-17T05:28:35;100119.13;;;23.71;54.52
75617;BME280;64200;55.426;37.758;2023-08-17T05:33:36;100115.66;;;23.92;53.32
75617;BME280;64200;55.426;37.758;2023-08-17T05:38:36;100112.31;;;24.14;52.60
75617;BME280;64200;55.426;37.758;2023-08-17T05:43:37;100107.38;;;24.28;50.92
75617;BME280;64200;55.426;37.758;2023-08-17T05:48:37;100118.38;;;24.45;50.07
75617;BME280;64200;55.426;37.758;2023-08-17T05:53:38;100125.25;;;24.63;48.78
75617;BME280;64200;55.426;37.758;2023-08-17T05:58:38;100119.84;;;24.73;46.46
75617;BME280;64200;55.426;37.758;2023-08-17T06:03:39;100117.25;;;24.96;45.02
75617;BME280;64200;55.426;37.758;2023-08-17T06:08:39;100115.69;;;25.16;44.91
75617;BME280;64200;55.426;37.758;2023-08-17T06:13:40;100123.94;;;25.49;44.98
75617;BME280;64200;55.426;37.758;2023-08-17T06:18:41;100119.16;;;25.72;43.69
75617;BME280;64200;55.426;37.758;2023-08-17T06:23:41;100122.25;;;26.11;43.03
75617;BME280;64200;55.426;37.758;2023-08-17T06:28:42;100119.69;;;26.44;41.71
75617;BME280;64200;55.426;37.758;2023-08-17T06:33:42;100119.78;;;26.75;41.78
75617;BME280;64200;55.426;37.758;2023-08-17T06:38:43;100125.75;;;27.08;40.99
75617;BME280;64200;55.426;37.758;2023-08-17T06:43:44;100131.50;;;27.39;39.77
75617;BME280;64200;55.426;37.758;2023-08-17T06:48:44;100131.66;;;27.72;39.53
75617;BME280;64200;55.426;37.758;2023-08-17T06:53:45;100133.31;;;28.06;39.04
75617;BME280;64200;55.426;37.758;2023-08-17T06:58:45;100127.84;;;28.33;38.33
75617;BME280;64200;55.426;37.758;2023-08-17T07:03:46;100105.47;;;28.31;38.09
75617;BME280;64200;55.426;37.758;2023-08-17T07:08:47;100128.91;;;28.86;37.47
75617;BME280;64200;55.426;37.758;2023-08-17T07:13:48;100123.97;;;29.29;36.37
75617;BME280;64200;55.426;37.758;2023-08-17T07:18:49;100121.56;;;29.43;36.26
75617;BME280;64200;55.426;37.758;2023-08-17T07:23:50;100117.66;;;29.91;35.58
75617;BME280;64200;55.426;37.758;2023-08-17T07:28:51;100124.13;;;30.26;34.22
75617;BME280;64200;55.426;37.758;2023-08-17T07:33:52;100122.22;;;30.56;33.79
75617;BME280;64200;55.426;37.758;2023-08-17T07:38:52;100118.28;;;31.35;33.04
75617;BME280;64200;55.426;37.758;2023-08-17T07:43:52;100112.91;;;31.79;32.76
75617;BME280;64200;55.426;37.758;2023-08-17T07:48:53;100123.47;;;32.54;29.45
75617;BME280;64200;55.426;37.758;2023-08-17T07:53:54;100120.03;;;33.50;28.03
75617;BME280;64200;55.426;37.758;2023-08-17T07:58:54;100128.00;;;34.26;27.21
75617;BME280;64200;55.426;37.758;2023-08-17T08:03:54;100118.66;;;35.21;25.88
75617;BME280;64200;55.426;37.758;2023-08-17T08:08:55;100119.34;;;36.06;25.08
75617;BME280;64200;55.426;37.758;2023-08-17T08:13:56;100115.13;;;37.00;23.84
75617;BME280;64200;55.426;37.758;2023-08-17T08:18:57;100129.72;;;37.86;22.32
75617;BME280;64200;55.426;37.758;2023-08-17T08:23:58;100115.09;;;38.75;20.06
75617;BME280;64200;55.426;37.758;2023-08-17T08:28:58;100112.34;;;39.45;19.67
75617;BME280;64200;55.426;37.758;2023-08-17T08:33:59;100108.81;;;40.55;18.04
75617;BME280;64200;55.426;37.758;2023-08-17T08:38:59;100109.59;;;41.36;17.15
75617;BME280;64200;55.426;37.758;2023-08-17T08:44:00;100105.34;;;40.99;16.63
75617;BME280;64200;55.426;37.758;2023-08-17T08:49:02;100100.00;;;41.33;16.31
75617;BME280;64200;55.426;37.758;2023-08-17T08:54:04;100107.06;;;42.61;16.36
75617;BME280;64200;55.426;37.758;2023-08-17T08:59:10;100105.72;;;43.43;15.10
75617;BME280;64200;55.426;37.758;2023-08-17T09:04:11;100106.03;;;43.55;14.33
75617;BME280;64200;55.426;37.758;2023-08-17T09:09:12;100109.91;;;43.36;13.88
75617;BME280;64200;55.426;37.758;2023-08-17T09:14:15;100100.06;;;43.51;13.98
75617;BME280;64200;55.426;37.758;2023-08-17T09:19:16;100102.00;;;43.99;13.84
75617;BME280;64200;55.426;37.758;2023-08-17T09:24:18;100094.75;;;44.69;14.01
75617;BME280;64200;55.426;37.758;2023-08-17T09:29:20;100084.72;;;45.21;13.45
75617;BME280;64200;55.426;37.758;2023-08-17T09:34:20;100075.97;;;45.68;12.98
75617;BME280;64200;55.426;37.758;2023-08-17T09:39:21;100077.91;;;46.46;11.57
75617;BME280;64200;55.426;37.758;2023-08-17T09:44:22;100080.06;;;46.44;11.65
75617;BME280;64200;55.426;37.758;2023-08-17T09:49:23;100076.72;;;46.70;11.04
75617;BME280;64200;55.426;37.758;2023-08-17T09:54:25;100074.00;;;46.91;10.92
75617;BME280;64200;55.426;37.758;2023-08-17T09:59:28;100071.66;;;46.20;11.46
75617;BME280;64200;55.426;37.758;2023-08-17T10:04:31;100073.88;;;47.54;10.82
75617;BME280;64200;55.426;37.758;2023-08-17T10:09:40;100056.25;;;49.33;9.89
75617;BME280;64200;55.426;37.758;2023-08-17T10:14:49;100065.06;;;48.98;9.07
75617;BME280;64200;55.426;37.758;2023-08-17T10:19:54;100068.00;;;48.87;9.08
75617;BME280;64200;55.426;37.758;2023-08-17T10:24:57;100063.56;;;48.84;9.32
75617;BME280;64200;55.426;37.758;2023-08-17T10:30:01;100061.31;;;50.23;8.97
75617;BME280;64200;55.426;37.758;2023-08-17T10:35:02;100055.31;;;50.48;8.36
75617;BME280;64200;55.426;37.758;2023-08-17T10:40:04;100047.31;;;49.92;8.39
75617;BME280;64200;55.426;37.758;2023-08-17T10:45:31;100045.31;;;51.09;8.12
75617;BME280;64200;55.426;37.758;2023-08-17T10:50:35;100042.44;;;50.92;8.15
75617;BME280;64200;55.426;37.758;2023-08-17T10:55:37;100038.38;;;50.03;8.39
75617;BME280;64200;55.426;37.758;2023-08-17T11:00:39;100029.38;;;50.38;7.94
75617;BME280;64200;55.426;37.758;2023-08-17T11:05:53;100038.63;;;51.10;7.70
75617;BME280;64200;55.426;37.758;2023-08-17T11:11:09;100033.19;;;51.40;7.37
75617;BME280;64200;55.426;37.758;2023-08-17T11:16:12;100023.13;;;51.80;7.35
75617;BME280;64200;55.426;37.758;2023-08-17T11:21:13;100016.72;;;50.48;7.25
75617;BME280;64200;55.426;37.758;2023-08-17T11:26:18;100016.31;;;51.16;7.10
75617;BME280;64200;55.426;37.758;2023-08-17T11:31:19;100015.13;;;51.62;7.58
75617;BME280;64200;55.426;37.758;2023-08-17T11:36:20;100010.59;;;50.81;7.07
75617;BME280;64200;55.426;37.758;2023-08-17T11:41:22;99994.84;;;51.07;6.77
75617;BME280;64200;55.426;37.758;2023-08-17T11:46:22;99993.47;;;51.76;6.91
75617;BME280;64200;55.426;37.758;2023-08-17T11:51:29;99991.94;;;52.40;6.90
75617;BME280;64200;55.426;37.758;2023-08-17T11:56:30;99990.50;;;52.32;6.69
75617;BME280;64200;55.426;37.758;2023-08-17T12:01:32;99998.03;;;52.81;6.19
75617;BME280;64200;55.426;37.758;2023-08-17T12:06:33;99992.47;;;53.48;6.61
75617;BME280;64200;55.426;37.758;2023-08-17T12:11:33;99976.31;;;51.79;6.24
75617;BME280;64200;55.426;37.758;2023-08-17T12:16:34;99971.94;;;50.87;7.02
75617;BME280;64200;55.426;37.758;2023-08-17T12:21:35;99963.81;;;50.79;6.78
75617;BME280;64200;55.426;37.758;2023-08-17T12:26:35;99948.53;;;50.33;7.65
75617;BME280;64200;55.426;37.758;2023-08-17T12:31:36;99956.16;;;48.51;8.36
75617;BME280;64200;55.426;37.758;2023-08-17T12:36:37;99953.03;;;42.34;10.72
75617;BME280;64200;55.426;37.758;2023-08-17T12:41:38;99932.78;;;39.26;13.74
75617;BME280;64200;55.426;37.758;2023-08-17T12:46:38;99923.50;;;37.36;16.61
75617;BME280;64200;55.426;37.758;2023-08-17T12:51:39;99920.75;;;36.39;17.42
75617;BME280;64200;55.426;37.758;2023-08-17T12:56:40;99922.06;;;35.57;18.31
75617;BME280;64200;55.426;37.758;2023-08-17T13:01:40;99914.88;;;34.94;19.53
75617;BME280;64200;55.426;37.758;2023-08-17T13:06:42;99910.41;;;34.20;19.96
75617;BME280;64200;55.426;37.758;2023-08-17T13:11:42;99922.19;;;33.77;20.54
75617;BME280;64200;55.426;37.758;2023-08-17T13:16:43;99907.16;;;33.23;21.61
75617;BME280;64200;55.426;37.758;2023-08-17T13:21:43;99911.50;;;32.91;22.59
75617;BME280;64200;55.426;37.758;2023-08-17T13:26:44;99917.97;;;33.23;21.78
75617;BME280;64200;55.426;37.758;2023-08-17T13:31:46;99905.72;;;33.13;21.97
75617;BME280;64200;55.426;37.758;2023-08-17T13:36:48;99915.50;;;33.07;22.87
75617;BME280;64200;55.426;37.758;2023-08-17T13:41:48;99911.44;;;32.79;22.70
75617;BME280;64200;55.426;37.758;2023-08-17T13:46:49;99911.88;;;32.32;22.60
75617;BME280;64200;55.426;37.758;2023-08-17T13:51:50;99899.03;;;32.14;23.28
75617;BME280;64200;55.426;37.758;2023-08-17T13:56:51;99909.50;;;32.19;22.76
75617;BME280;64200;55.426;37.758;2023-08-17T14:01:52;99908.91;;;32.20;23.54
75617;BME280;64200;55.426;37.758;2023-08-17T14:06:52;99906.34;;;32.15;23.35
75617;BME280;64200;55.426;37.758;2023-08-17T14:11:53;99894.25;;;31.87;23.79
75617;BME280;64200;55.426;37.758;2023-08-17T14:16:54;99898.97;;;31.82;23.80
75617;BME280;64200;55.426;37.758;2023-08-17T14:21:55;99903.69;;;31.87;23.93
75617;BME280;64200;55.426;37.758;2023-08-17T14:26:55;99895.84;;;31.68;23.76
75617;BME280;64200;55.426;37.758;2023-08-17T14:31:58;99902.84;;;31.56;24.48
75617;BME280;64200;55.426;37.758;2023-08-17T14:36:58;99907.06;;;31.55;24.45
75617;BME280;64200;55.426;37.758;2023-08-17T14:41:59;99899.81;;;31.53;24.80
75617;BME280;64200;55.426;37.758;2023-08-17T14:47:00;99898.75;;;31.39;24.80
75617;BME280;64200;55.426;37.758;2023-08-17T14:52:00;99896.19;;;31.14;25.06
75617;BME280;64200;55.426;37.758;2023-08-17T14:57:01;99906.66;;;30.99;25.29
75617;BME280;64200;55.426;37.758;2023-08-17T15:02:02;99908.13;;;30.91;25.47
75617;BME280;64200;55.426;37.758;2023-08-17T15:07:02;99906.72;;;30.53;25.76
75617;BME280;64200;55.426;37.758;2023-08-17T15:12:09;99890.91;;;30.34;26.46
75617;BME280;64200;55.426;37.758;2023-08-17T15:17:10;99911.09;;;30.44;26.57
75617;BME280;64200;55.426;37.758;2023-08-17T15:22:12;99911.97;;;30.37;26.55
75617;BME280;64200;55.426;37.758;2023-08-17T15:27:13;99924.50;;;30.31;26.97
75617;BME280;64200;55.426;37.758;2023-08-17T15:32:13;99924.31;;;30.20;27.23
75617;BME280;64200;55.426;37.758;2023-08-17T15:37:14;99926.84;;;30.06;27.41
75617;BME280;64200;55.426;37.758;2023-08-17T15:42:15;99938.88;;;29.94;27.83
75617;BME280;64200;55.426;37.758;2023-08-17T15:47:15;99932.91;;;29.83;28.00
75617;BME280;64200;55.426;37.758;2023-08-17T15:52:16;99939.34;;;29.73;28.23
75617;BME280;64200;55.426;37.758;2023-08-17T15:57:16;99929.31;;;29.65;28.21
75617;BME280;64200;55.426;37.758;2023-08-17T16:02:17;99933.03;;;29.57;28.36
75617;BME280;64200;55.426;37.758;2023-08-17T16:07:18;99934.66;;;29.51;28.57
75617;BME280;64200;55.426;37.758;2023-08-17T16:12:18;99948.81;;;29.39;28.92
75617;BME280;64200;55.426;37.758;2023-08-17T16:17:19;99939.59;;;29.23;29.22
75617;BME280;64200;55.426;37.758;2023-08-17T16:22:19;99947.34;;;29.13;29.42
75617;BME280;64200;55.426;37.758;2023-08-17T16:27:20;99948.06;;;28.96;29.64
75617;BME280;64200;55.426;37.758;2023-08-17T16:32:20;99933.72;;;28.78;30.26
75617;BME280;64200;55.426;37.758;2023-08-17T16:37:21;99936.34;;;28.59;30.81
75617;BME280;64200;55.426;37.758;2023-08-17T16:42:21;99944.16;;;28.41;31.72
75617;BME280;64200;55.426;37.758;2023-08-17T16:47:22;99942.91;;;28.26;32.07
75617;BME280;64200;55.426;37.758;2023-08-17T16:52:26;99945.31;;;28.12;33.00
75617;BME280;64200;55.426;37.758;2023-08-17T16:57:26;99954.38;;;27.93;33.53
75617;BME280;64200;55.426;37.758;2023-08-17T17:02:27;99973.81;;;27.69;33.74
75617;BME280;64200;55.426;37.758;2023-08-17T17:07:27;99973.47;;;27.58;34.12
75617;BME280;64200;55.426;37.758;2023-08-17T17:12:28;99974.28;;;27.50;34.89
75617;BME280;64200;55.426;37.758;2023-08-17T17:17:28;99978.91;;;27.30;35.46
75617;BME280;64200;55.426;37.758;2023-08-17T17:22:29;99983.16;;;27.14;35.59
75617;BME280;64200;55.426;37.758;2023-08-17T17:27:30;99983.91;;;27.07;35.92
75617;BME280;64200;55.426;37.758;2023-08-17T17:32:30;99992.13;;;27.10;36.34
75617;BME280;64200;55.426;37.758;2023-08-17T17:37:31;99984.69;;;27.07;36.74
75617;BME280;64200;55.426;37.758;2023-08-17T17:42:31;99974.56;;;26.98;36.70
75617;BME280;64200;55.426;37.758;2023-08-17T17:47:32;99979.19;;;26.86;36.79
75617;BME280;64200;55.426;37.758;2023-08-17T17:52:35;99980.34;;;26.75;36.98
75617;BME280;64200;55.426;37.758;2023-08-17T17:57:35;99970.03;;;26.72;37.57
75617;BME280;64200;55.426;37.758;2023-08-17T18:02:37;99974.59;;;26.68;38.29
75617;BME280;64200;55.426;37.758;2023-08-17T18:07:38;99976.69;;;26.59;38.19
75617;BME280;64200;55.426;37.758;2023-08-17T18:12:39;99972.09;;;26.49;38.74
75617;BME280;64200;55.426;37.758;2023-08-17T18:17:40;99968.28;;;26.38;38.66
75617;BME280;64200;55.426;37.758;2023-08-17T18:22:40;99974.94;;;26.33;38.96
75617;BME280;64200;55.426;37.758;2023-08-17T18:27:41;99985.41;;;26.30;38.57
75617;BME280;64200;55.426;37.758;2023-08-17T18:32:42;99969.97;;;26.18;39.05
75617;BME280;64200;55.426;37.758;2023-08-17T18:37:43;99954.88;;;26.02;39.16
75617;BME280;64200;55.426;37.758;2023-08-17T18:42:43;99969.13;;;25.94;39.12
75617;BME280;64200;55.426;37.758;2023-08-17T18:47:44;99963.22;;;25.92;39.00
75617;BME280;64200;55.426;37.758;2023-08-17T18:52:46;99967.97;;;25.90;39.86
75617;BME280;64200;55.426;37.758;2023-08-17T18:57:47;99976.34;;;25.88;40.30
75617;BME280;64200;55.426;37.758;2023-08-17T19:02:49;99978.41;;;25.80;40.11
75617;BME280;64200;55.426;37.758;2023-08-17T19:07:50;99991.91;;;25.71;40.76
75617;BME280;64200;55.426;37.758;2023-08-17T19:12:51;99971.88;;;25.64;41.45
75617;BME280;64200;55.426;37.758;2023-08-17T19:17:52;99960.41;;;25.48;41.50
75617;BME280;64200;55.426;37.758;2023-08-17T19:22:52;99973.31;;;25.49;42.17
75617;BME280;64200;55.426;37.758;2023-08-17T19:27:55;99976.16;;;25.41;42.42
75617;BME280;64200;55.426;37.758;2023-08-17T19:32:56;99978.13;;;25.25;42.79
75617;BME280;64200;55.426;37.758;2023-08-17T19:37:58;99975.66;;;25.22;43.05
75617;BME280;64200;55.426;37.758;2023-08-17T19:42:58;99958.63;;;25.08;43.78
75617;BME280;64200;55.426;37.758;2023-08-17T19:47:59;99957.34;;;24.88;44.04
75617;BME280;64200;55.426;37.758;2023-08-17T19:52:59;99941.59;;;24.66;44.03
75617;BME280;64200;55.426;37.758;2023-08-17T19:58:00;99954.44;;;24.81;44.29
75617;BME280;64200;55.426;37.758;2023-08-17T20:03:00;99959.53;;;24.75;44.48
75617;BME280;64200;55.426;37.758;2023-08-17T20:08:01;99967.06;;;24.64;44.50
75617;BME280;64200;55.426;37.758;2023-08-17T20:13:02;99972.34;;;24.60;44.44
75617;BME280;64200;55.426;37.758;2023-08-17T20:18:03;99972.91;;;24.59;44.29
75617;BME280;64200;55.426;37.758;2023-08-17T20:23:04;99983.75;;;24.60;44.83
75617;BME280;64200;55.426;37.758;2023-08-17T20:28:04;99983.88;;;24.54;45.30
75617;BME280;64200;55.426;37.758;2023-08-17T20:33:05;99986.09;;;24.27;45.52
75617;BME280;64200;55.426;37.758;2023-08-17T20:38:06;99984.66;;;23.99;46.46
75617;BME280;64200;55.426;37.758;2023-08-17T20:43:07;99981.53;;;23.76;47.41
75617;BME280;64200;55.426;37.758;2023-08-17T20:48:08;99999.19;;;23.75;48.17
75617;BME280;64200;55.426;37.758;2023-08-17T20:53:11;100007.06;;;23.68;48.08
75617;BME280;64200;55.426;37.758;2023-08-17T20:58:12;99975.03;;;23.41;48.92
75617;BME280;64200;55.426;37.758;2023-08-17T21:03:13;100003.59;;;23.49;49.23
75617;BME280;64200;55.426;37.758;2023-08-17T21:08:13;99993.84;;;23.31;49.56
75617;BME280;64200;55.426;37.758;2023-08-17T21:13:14;99992.22;;;23.22;49.80
75617;BME280;64200;55.426;37.758;2023-08-17T21:18:14;100014.66;;;23.26;50.01
75617;BME280;64200;55.426;37.758;2023-08-17T21:23:15;100009.72;;;23.26;50.21
75617;BME280;64200;55.426;37.758;2023-08-17T21:28:15;100007.75;;;23.21;50.43
75617;BME280;64200;55.426;37.758;2023-08-17T21:33:16;100009.19;;;23.14;50.62
75617;BME280;64200;55.426;37.758;2023-08-17T21:38:16;100002.28;;;23.10;50.57
75617;BME280;64200;55.426;37.758;2023-08-17T21:43:17;99995.78;;;23.09;50.50
75617;BME280;64200;55.426;37.758;2023-08-17T21:48:17;100017.50;;;23.12;50.80
75617;BME280;64200;55.426;37.758;2023-08-17T21:53:18;100014.78;;;22.74;51.30
75617;BME280;64200;55.426;37.758;2023-08-17T21:58:19;100029.72;;;22.61;52.03
75617;BME280;64200;55.426;37.758;2023-08-17T22:03:20;100026.84;;;22.48;52.46
75617;BME280;64200;55.426;37.758;2023-08-17T22:08:20;100015.69;;;22.50;52.53
75617;BME280;64200;55.426;37.758;2023-08-17T22:13:21;100000.25;;;22.45;52.55
75617;BME280;64200;55.426;37.758;2023-08-17T22:18:21;100003.25;;;22.53;52.80
75617;BME280;64200;55.426;37.758;2023-08-17T22:23:22;100003.25;;;22.53;52.84
75617;BME280;64200;55.426;37.758;2023-08-17T22:28:23;100000.63;;;22.55;52.68
75617;BME280;64200;55.426;37.758;2023-08-17T22:33:24;100001.06;;;22.59;52.82
75617;BME280;64200;55.426;37.758;2023-08-17T22:38:24;100003.69;;;22.57;52.71
75617;BME280;64200;55.426;37.758;2023-08-17T22:43:25;99999.88;;;22.55;52.96
75617;BME280;64200;55.426;37.758;2023-08-17T22:48:25;100000.72;;;22.50;53.01
75617;BME280;64200;55.426;37.758;2023-08-17T22:53:26;100007.56;;;22.41;53.29
75617;BME280;64200;55.426;37.758;2023-08-17T22:58:27;100016.09;;;22.41;53.40
75617;BME280;64200;55.426;37.758;2023-08-17T23:03:28;100015.47;;;22.29;53.70
75617;BME280;64200;55.426;37.758;2023-08-17T23:08:28;100034.75;;;22.17;54.48
75617;BME280;64200;55.426;37.758;2023-08-17T23:13:29;100027.38;;;21.89;54.90
75617;BME280;64200;55.426;37.758;2023-08-17T23:18:31;100020.81;;;21.81;55.21
75617;BME280;64200;55.426;37.758;2023-08-17T23:23:31;100018.09;;;21.70;55.62
75617;BME280;64200;55.426;37.758;2023-08-17T23:28:32;100020.19;;;21.69;55.66
75617;BME280;64200;55.426;37.758;2023-08-17T23:33:32;100028.38;;;21.73;55.59
75617;BME280;64200;55.426;37.758;2023-08-17T23:38:33;100038.66;;;21.76;55.84
75617;BME280;64200;55.426;37.758;2023-08-17T23:43:34;100034.88;;;21.92;55.62
75617;BME280;64200;55.426;37.758;2023-08-17T23:48:34;100033.63;;;22.07;55.27
75617;BME280;64200;55.426;37.758;2023-08-17T23:53:35;100051.06;;;22.17;54.94
75617;BME280;64200;55.426;37.758;2023-08-17T23:58:35;100052.19;;;22.08;54.87
